Greater Kankakee Airport
KIKK : now visible

Airfield :











YOU CAN JOIN US ON...

 
LOGIN :

Register | Disclaimer

   EN    FR    IT 

 









Legend :    VFR   Marginal VFR   IFR   Intensive IFR   Very Intensive IFR
Visi :
Ceiling :
>= 8 km
>= 3000ft
5 to 8 km
1000 to 3000 ft
1500m to 5 km
500 to 1000 ft
800 to 1500m
200 to 500 ft
< 800m
< 200 ft
Symbols :   Thunderstorms  Fog  Heavy snow  Heavy precipitations  Wind > 20 kt






- Airport Elevation : 630 ft


KIKK - Greater Kankakee

CURRENT METAR :
  • 190815Z AUTO 21015G18KT 10SM VCTS BKN095 BKN120 23/22 A2986 RMK AO2 LTG DSNT ALQS T02320216

EXPIRED METARs :
  • 190755Z AUTO 00000KT 10SM VCTS SCT070 SCT095 SCT120 23/21 A2982 RMK AO2 LTG DSNT S THRU NW T02250210
  • 190735Z AUTO 17004KT 10SM SCT070 SCT095 SCT120 22/21 A2981 RMK AO2 LTG DSNT S THRU W T02170208 PWINO
  • 190715Z AUTO 00000KT 10SM CLR 23/21 A2981 RMK AO2 LTG DSNT S THRU W T02260207 PWINO
  • 190655Z AUTO 00000KT 10SM CLR 22/21 A2981 RMK AO2 LTG DSNT W T02150206 PWINO
  • 190635Z AUTO 00000KT 10SM SCT120 24/21 A2982 RMK AO2 LTG DSNT S THRU W T02350205 PWINO
  • 190615Z AUTO 15007KT 10SM VCTS SCT120 23/20 A2982 RMK AO2 LTG DSNT W T02280199
  • 190555Z AUTO 15008KT 10SM CLR 21/19 A2982 RMK AO2 LTG DSNT SE AND S T02050191 10298 20205 403270205 PWINO
  • 190535Z AUTO 18003KT 10SM CLR 22/19 A2980 RMK AO2 T02160191 PWINO

TAF N/A
KZAU FIR / North America



MET'MAP, your aeronautical weather chart ! - Copyright ORBIFLY December 2007 - Disclaimer

ORBIFLY MET'MAP TEAM :

Programming & Development : Alexandra Zaïnal
Concept & original design : Baudouin d'Aumeries
Assistance for programming : Marc-Olivier Méhu
Technical & hardware support : Manuel Goepfert

Contact : metmap@orbifly.com




SOURCES & CREDITS :

   NOAA       Earth
Advisory